Aviation Digital Data Service (ADDS)

Output produced by METARs form (0630 UTC 02 August 2014)
found at http://aviationweather.gov/adds/metars/
 
KPOU 020551Z 0206/0306 VRB03KT 5SM BR SCT020 BKN100 
     TEMPO 0206/0210 3SM BR BKN020 
     FM021200 12004KT 3SM -RA BR SCT008 BKN015 OVC050 
     FM021600 05005KT P6SM VCSH BKN035 OVC060